sensor_id;sensor_type;location;lat;lon;timestamp;P1;durP1;ratioP1;P2;durP2;ratioP2
58864;SDS011;45702;52.982;6.658;2022-10-19T00:01:49;25.23;;;5.03;;
58864;SDS011;45702;52.982;6.658;2022-10-19T00:04:15;20.48;;;5.05;;
58864;SDS011;45702;52.982;6.658;2022-10-19T00:06:41;17.88;;;5.00;;
58864;SDS011;45702;52.982;6.658;2022-10-19T00:09:08;16.63;;;4.65;;
58864;SDS011;45702;52.982;6.658;2022-10-19T00:11:37;16.38;;;4.63;;
58864;SDS011;45702;52.982;6.658;2022-10-19T00:14:03;13.32;;;4.65;;
58864;SDS011;45702;52.982;6.658;2022-10-19T00:16:31;16.48;;;4.05;;
58864;SDS011;45702;52.982;6.658;2022-10-19T00:18:59;12.63;;;4.35;;
58864;SDS011;45702;52.982;6.658;2022-10-19T00:21:25;13.27;;;4.75;;
58864;SDS011;45702;52.982;6.658;2022-10-19T00:23:51;16.45;;;4.22;;
58864;SDS011;45702;52.982;6.658;2022-10-19T00:26:17;15.38;;;4.28;;
58864;SDS011;45702;52.982;6.658;2022-10-19T00:28:43;13.82;;;4.30;;
58864;SDS011;45702;52.982;6.658;2022-10-19T00:31:11;12.52;;;4.00;;
58864;SDS011;45702;52.982;6.658;2022-10-19T00:33:37;20.33;;;4.82;;
58864;SDS011;45702;52.982;6.658;2022-10-19T00:36:03;13.18;;;4.10;;
58864;SDS011;45702;52.982;6.658;2022-10-19T00:38:30;21.85;;;4.40;;
58864;SDS011;45702;52.982;6.658;2022-10-19T00:40:56;15.85;;;4.30;;
58864;SDS011;45702;52.982;6.658;2022-10-19T00:43:23;12.05;;;4.43;;
58864;SDS011;45702;52.982;6.658;2022-10-19T00:45:50;15.20;;;4.30;;
58864;SDS011;45702;52.982;6.658;2022-10-19T00:48:18;13.70;;;4.20;;
58864;SDS011;45702;52.982;6.658;2022-10-19T00:53:11;16.00;;;4.57;;
58864;SDS011;45702;52.982;6.658;2022-10-19T00:55:37;22.63;;;4.18;;
58864;SDS011;45702;52.982;6.658;2022-10-19T00:58:04;14.63;;;4.68;;
58864;SDS011;45702;52.982;6.658;2022-10-19T01:00:30;22.80;;;4.13;;
58864;SDS011;45702;52.982;6.658;2022-10-19T01:02:58;11.18;;;3.95;;
58864;SDS011;45702;52.982;6.658;2022-10-19T01:05:24;17.95;;;3.95;;
58864;SDS011;45702;52.982;6.658;2022-10-19T01:07:51;18.73;;;4.05;;
58864;SDS011;45702;52.982;6.658;2022-10-19T01:10:17;15.88;;;3.88;;
58864;SDS011;45702;52.982;6.658;2022-10-19T01:13:31;23.40;;;4.22;;
58864;SDS011;45702;52.982;6.658;2022-10-19T01:15:45;16.08;;;3.83;;
58864;SDS011;45702;52.982;6.658;2022-10-19T01:18:20;10.95;;;4.00;;
58864;SDS011;45702;52.982;6.658;2022-10-19T01:23:29;17.10;;;4.40;;
58864;SDS011;45702;52.982;6.658;2022-10-19T01:33:57;14.90;;;4.53;;
58864;SDS011;45702;52.982;6.658;2022-10-19T01:36:36;18.35;;;4.22;;
58864;SDS011;45702;52.982;6.658;2022-10-19T01:41:42;9.25;;;3.42;;
58864;SDS011;45702;52.982;6.658;2022-10-19T01:46:37;14.93;;;4.45;;
58864;SDS011;45702;52.982;6.658;2022-10-19T01:49:12;11.82;;;3.58;;
58864;SDS011;45702;52.982;6.658;2022-10-19T01:51:48;16.98;;;3.63;;
58864;SDS011;45702;52.982;6.658;2022-10-19T01:54:16;19.55;;;3.55;;
58864;SDS011;45702;52.982;6.658;2022-10-19T01:56:44;14.32;;;3.30;;
58864;SDS011;45702;52.982;6.658;2022-10-19T01:59:12;12.40;;;3.33;;
58864;SDS011;45702;52.982;6.658;2022-10-19T02:01:40;9.85;;;3.42;;
58864;SDS011;45702;52.982;6.658;2022-10-19T02:04:08;13.07;;;3.40;;
58864;SDS011;45702;52.982;6.658;2022-10-19T02:06:35;21.55;;;4.80;;
58864;SDS011;45702;52.982;6.658;2022-10-19T02:09:02;15.70;;;3.90;;
58864;SDS011;45702;52.982;6.658;2022-10-19T02:11:28;11.77;;;3.45;;
58864;SDS011;45702;52.982;6.658;2022-10-19T02:13:55;14.13;;;3.47;;
58864;SDS011;45702;52.982;6.658;2022-10-19T02:16:30;15.38;;;3.38;;
58864;SDS011;45702;52.982;6.658;2022-10-19T02:18:57;19.23;;;3.50;;
58864;SDS011;45702;52.982;6.658;2022-10-19T02:21:25;14.32;;;3.50;;
58864;SDS011;45702;52.982;6.658;2022-10-19T02:23:51;16.30;;;3.63;;
58864;SDS011;45702;52.982;6.658;2022-10-19T02:26:17;22.70;;;3.70;;
58864;SDS011;45702;52.982;6.658;2022-10-19T02:28:43;13.95;;;3.22;;
58864;SDS011;45702;52.982;6.658;2022-10-19T02:31:09;12.07;;;3.40;;
58864;SDS011;45702;52.982;6.658;2022-10-19T02:33:36;10.50;;;3.50;;
58864;SDS011;45702;52.982;6.658;2022-10-19T02:36:02;14.73;;;3.47;;
58864;SDS011;45702;52.982;6.658;2022-10-19T02:38:28;18.38;;;3.78;;
58864;SDS011;45702;52.982;6.658;2022-10-19T02:43:33;11.07;;;3.17;;
58864;SDS011;45702;52.982;6.658;2022-10-19T02:48:28;18.55;;;3.03;;
58864;SDS011;45702;52.982;6.658;2022-10-19T02:50:55;13.60;;;3.10;;
58864;SDS011;45702;52.982;6.658;2022-10-19T02:53:22;13.52;;;2.92;;
58864;SDS011;45702;52.982;6.658;2022-10-19T02:55:48;15.30;;;3.15;;
58864;SDS011;45702;52.982;6.658;2022-10-19T02:58:14;14.90;;;2.88;;
58864;SDS011;45702;52.982;6.658;2022-10-19T03:00:40;12.52;;;2.70;;
58864;SDS011;45702;52.982;6.658;2022-10-19T03:03:07;11.00;;;2.80;;
58864;SDS011;45702;52.982;6.658;2022-10-19T03:05:33;9.98;;;2.72;;
58864;SDS011;45702;52.982;6.658;2022-10-19T03:07:59;14.38;;;2.85;;
58864;SDS011;45702;52.982;6.658;2022-10-19T03:10:25;12.68;;;2.70;;
58864;SDS011;45702;52.982;6.658;2022-10-19T03:12:51;14.10;;;2.90;;
58864;SDS011;45702;52.982;6.658;2022-10-19T03:15:17;10.40;;;2.63;;
58864;SDS011;45702;52.982;6.658;2022-10-19T03:17:43;16.98;;;2.88;;
58864;SDS011;45702;52.982;6.658;2022-10-19T03:20:09;10.93;;;2.33;;
58864;SDS011;45702;52.982;6.658;2022-10-19T03:22:36;11.25;;;2.30;;
58864;SDS011;45702;52.982;6.658;2022-10-19T03:25:02;15.13;;;2.50;;
58864;SDS011;45702;52.982;6.658;2022-10-19T03:27:28;9.32;;;2.28;;
58864;SDS011;45702;52.982;6.658;2022-10-19T03:29:54;10.27;;;2.67;;
58864;SDS011;45702;52.982;6.658;2022-10-19T03:32:20;13.75;;;2.60;;
58864;SDS011;45702;52.982;6.658;2022-10-19T03:34:46;11.48;;;2.20;;
58864;SDS011;45702;52.982;6.658;2022-10-19T03:37:12;11.88;;;1.95;;
58864;SDS011;45702;52.982;6.658;2022-10-19T03:39:39;11.15;;;2.08;;
58864;SDS011;45702;52.982;6.658;2022-10-19T03:42:05;14.23;;;2.50;;
58864;SDS011;45702;52.982;6.658;2022-10-19T03:44:31;12.05;;;2.45;;
58864;SDS011;45702;52.982;6.658;2022-10-19T03:46:57;9.77;;;2.15;;
58864;SDS011;45702;52.982;6.658;2022-10-19T03:49:23;8.43;;;2.00;;
58864;SDS011;45702;52.982;6.658;2022-10-19T03:51:49;13.38;;;2.35;;
58864;SDS011;45702;52.982;6.658;2022-10-19T03:54:15;11.27;;;2.22;;
58864;SDS011;45702;52.982;6.658;2022-10-19T03:56:42;8.13;;;2.20;;
58864;SDS011;45702;52.982;6.658;2022-10-19T03:59:10;16.13;;;2.58;;
58864;SDS011;45702;52.982;6.658;2022-10-19T04:01:38;16.95;;;2.30;;
58864;SDS011;45702;52.982;6.658;2022-10-19T04:04:14;13.52;;;2.75;;
58864;SDS011;45702;52.982;6.658;2022-10-19T04:06:41;8.98;;;2.10;;
58864;SDS011;45702;52.982;6.658;2022-10-19T04:09:08;11.70;;;2.20;;
58864;SDS011;45702;52.982;6.658;2022-10-19T04:11:36;12.48;;;2.10;;
58864;SDS011;45702;52.982;6.658;2022-10-19T04:14:02;12.90;;;2.30;;
58864;SDS011;45702;52.982;6.658;2022-10-19T04:16:29;8.95;;;2.20;;
58864;SDS011;45702;52.982;6.658;2022-10-19T04:18:55;13.68;;;2.20;;
58864;SDS011;45702;52.982;6.658;2022-10-19T04:21:26;12.15;;;2.20;;
58864;SDS011;45702;52.982;6.658;2022-10-19T04:23:53;11.23;;;2.17;;
58864;SDS011;45702;52.982;6.658;2022-10-19T04:26:21;11.40;;;2.38;;
58864;SDS011;45702;52.982;6.658;2022-10-19T04:28:47;14.15;;;2.33;;
58864;SDS011;45702;52.982;6.658;2022-10-19T04:31:13;15.85;;;2.28;;
58864;SDS011;45702;52.982;6.658;2022-10-19T04:33:40;16.85;;;2.40;;
58864;SDS011;45702;52.982;6.658;2022-10-19T04:36:07;14.60;;;2.72;;
58864;SDS011;45702;52.982;6.658;2022-10-19T04:38:33;8.77;;;2.25;;
58864;SDS011;45702;52.982;6.658;2022-10-19T04:41:03;11.77;;;2.42;;
58864;SDS011;45702;52.982;6.658;2022-10-19T04:43:29;16.15;;;2.38;;
58864;SDS011;45702;52.982;6.658;2022-10-19T04:45:55;12.35;;;2.58;;
58864;SDS011;45702;52.982;6.658;2022-10-19T04:48:21;7.05;;;2.35;;
58864;SDS011;45702;52.982;6.658;2022-10-19T04:50:47;10.05;;;2.28;;
58864;SDS011;45702;52.982;6.658;2022-10-19T04:53:14;10.48;;;2.58;;
58864;SDS011;45702;52.982;6.658;2022-10-19T04:55:40;11.20;;;2.50;;
58864;SDS011;45702;52.982;6.658;2022-10-19T05:00:36;11.40;;;2.60;;
58864;SDS011;45702;52.982;6.658;2022-10-19T05:03:02;12.13;;;2.42;;
58864;SDS011;45702;52.982;6.658;2022-10-19T05:05:28;18.00;;;2.42;;
58864;SDS011;45702;52.982;6.658;2022-10-19T05:07:56;10.60;;;2.40;;
58864;SDS011;45702;52.982;6.658;2022-10-19T05:10:22;12.02;;;2.42;;
58864;SDS011;45702;52.982;6.658;2022-10-19T05:12:48;12.82;;;2.60;;
58864;SDS011;45702;52.982;6.658;2022-10-19T05:15:14;12.52;;;2.60;;
58864;SDS011;45702;52.982;6.658;2022-10-19T05:17:40;12.45;;;2.40;;
58864;SDS011;45702;52.982;6.658;2022-10-19T05:20:06;16.98;;;2.72;;
58864;SDS011;45702;52.982;6.658;2022-10-19T05:22:32;6.43;;;2.67;;
58864;SDS011;45702;52.982;6.658;2022-10-19T05:24:58;13.60;;;2.80;;
58864;SDS011;45702;52.982;6.658;2022-10-19T05:27:24;11.38;;;2.50;;
58864;SDS011;45702;52.982;6.658;2022-10-19T05:29:50;12.25;;;2.55;;
58864;SDS011;45702;52.982;6.658;2022-10-19T05:32:17;16.13;;;2.97;;
58864;SDS011;45702;52.982;6.658;2022-10-19T05:34:43;13.63;;;2.28;;
58864;SDS011;45702;52.982;6.658;2022-10-19T05:37:09;14.40;;;2.72;;
58864;SDS011;45702;52.982;6.658;2022-10-19T05:39:35;15.00;;;2.63;;
58864;SDS011;45702;52.982;6.658;2022-10-19T05:42:01;10.18;;;2.60;;
58864;SDS011;45702;52.982;6.658;2022-10-19T05:44:27;9.02;;;2.72;;
58864;SDS011;45702;52.982;6.658;2022-10-19T05:46:53;14.68;;;2.97;;
58864;SDS011;45702;52.982;6.658;2022-10-19T05:49:20;10.82;;;2.85;;
58864;SDS011;45702;52.982;6.658;2022-10-19T05:51:46;16.20;;;2.95;;
58864;SDS011;45702;52.982;6.658;2022-10-19T05:54:12;13.13;;;2.63;;
58864;SDS011;45702;52.982;6.658;2022-10-19T05:56:40;13.65;;;2.85;;
58864;SDS011;45702;52.982;6.658;2022-10-19T05:59:06;12.77;;;2.85;;
58864;SDS011;45702;52.982;6.658;2022-10-19T06:01:33;12.45;;;2.92;;
58864;SDS011;45702;52.982;6.658;2022-10-19T06:04:00;10.90;;;2.83;;
58864;SDS011;45702;52.982;6.658;2022-10-19T06:06:26;11.02;;;3.60;;
58864;SDS011;45702;52.982;6.658;2022-10-19T06:08:53;15.90;;;4.43;;
58864;SDS011;45702;52.982;6.658;2022-10-19T06:11:27;18.10;;;4.88;;
58864;SDS011;45702;52.982;6.658;2022-10-19T06:13:54;16.40;;;4.40;;
58864;SDS011;45702;52.982;6.658;2022-10-19T06:16:21;12.23;;;3.83;;
58864;SDS011;45702;52.982;6.658;2022-10-19T06:18:48;15.80;;;3.95;;
58864;SDS011;45702;52.982;6.658;2022-10-19T06:21:16;12.73;;;4.30;;
58864;SDS011;45702;52.982;6.658;2022-10-19T06:23:42;16.42;;;3.85;;
58864;SDS011;45702;52.982;6.658;2022-10-19T06:26:09;20.80;;;3.53;;
58864;SDS011;45702;52.982;6.658;2022-10-19T06:28:36;12.77;;;2.78;;
58864;SDS011;45702;52.982;6.658;2022-10-19T06:31:03;18.95;;;3.20;;
58864;SDS011;45702;52.982;6.658;2022-10-19T06:33:29;16.90;;;3.28;;
58864;SDS011;45702;52.982;6.658;2022-10-19T06:35:55;17.48;;;3.25;;
58864;SDS011;45702;52.982;6.658;2022-10-19T06:38:21;10.82;;;2.83;;
58864;SDS011;45702;52.982;6.658;2022-10-19T06:40:47;15.93;;;3.67;;
58864;SDS011;45702;52.982;6.658;2022-10-19T06:43:14;21.13;;;3.30;;
58864;SDS011;45702;52.982;6.658;2022-10-19T06:45:40;12.32;;;2.92;;
58864;SDS011;45702;52.982;6.658;2022-10-19T06:48:06;18.35;;;2.80;;
58864;SDS011;45702;52.982;6.658;2022-10-19T06:50:32;20.42;;;2.63;;
58864;SDS011;45702;52.982;6.658;2022-10-19T06:52:59;17.45;;;3.17;;
58864;SDS011;45702;52.982;6.658;2022-10-19T06:55:25;16.63;;;2.10;;
58864;SDS011;45702;52.982;6.658;2022-10-19T06:57:51;15.30;;;2.65;;
58864;SDS011;45702;52.982;6.658;2022-10-19T07:00:17;19.58;;;3.10;;
58864;SDS011;45702;52.982;6.658;2022-10-19T07:02:43;18.63;;;2.35;;
58864;SDS011;45702;52.982;6.658;2022-10-19T07:05:09;25.30;;;2.55;;
58864;SDS011;45702;52.982;6.658;2022-10-19T07:07:36;22.83;;;3.17;;
58864;SDS011;45702;52.982;6.658;2022-10-19T07:10:02;14.25;;;2.33;;
58864;SDS011;45702;52.982;6.658;2022-10-19T07:12:31;13.75;;;2.30;;
58864;SDS011;45702;52.982;6.658;2022-10-19T07:14:57;22.30;;;2.50;;
58864;SDS011;45702;52.982;6.658;2022-10-19T07:17:23;13.75;;;2.10;;
58864;SDS011;45702;52.982;6.658;2022-10-19T07:19:49;17.95;;;2.50;;
58864;SDS011;45702;52.982;6.658;2022-10-19T07:22:16;23.48;;;2.45;;
58864;SDS011;45702;52.982;6.658;2022-10-19T07:24:42;18.88;;;2.42;;
58864;SDS011;45702;52.982;6.658;2022-10-19T07:27:08;12.93;;;1.98;;
58864;SDS011;45702;52.982;6.658;2022-10-19T07:29:34;20.83;;;2.05;;
58864;SDS011;45702;52.982;6.658;2022-10-19T07:32:00;21.58;;;2.63;;
58864;SDS011;45702;52.982;6.658;2022-10-19T07:34:26;20.23;;;2.38;;
58864;SDS011;45702;52.982;6.658;2022-10-19T07:36:52;18.27;;;2.33;;
58864;SDS011;45702;52.982;6.658;2022-10-19T07:39:19;21.60;;;2.83;;
58864;SDS011;45702;52.982;6.658;2022-10-19T07:41:45;22.15;;;2.60;;
58864;SDS011;45702;52.982;6.658;2022-10-19T07:44:12;18.40;;;2.60;;
58864;SDS011;45702;52.982;6.658;2022-10-19T07:46:38;15.68;;;2.22;;
58864;SDS011;45702;52.982;6.658;2022-10-19T07:49:06;16.40;;;2.58;;
58864;SDS011;45702;52.982;6.658;2022-10-19T07:51:34;13.38;;;2.33;;
58864;SDS011;45702;52.982;6.658;2022-10-19T07:54:00;16.50;;;2.60;;
58864;SDS011;45702;52.982;6.658;2022-10-19T07:56:27;18.05;;;2.20;;
58864;SDS011;45702;52.982;6.658;2022-10-19T07:58:54;13.18;;;2.88;;
58864;SDS011;45702;52.982;6.658;2022-10-19T08:01:21;18.05;;;2.00;;
58864;SDS011;45702;52.982;6.658;2022-10-19T08:03:49;13.95;;;2.30;;
58864;SDS011;45702;52.982;6.658;2022-10-19T08:06:16;14.25;;;1.90;;
58864;SDS011;45702;52.982;6.658;2022-10-19T08:08:46;15.98;;;2.10;;
58864;SDS011;45702;52.982;6.658;2022-10-19T08:11:13;13.02;;;1.98;;
58864;SDS011;45702;52.982;6.658;2022-10-19T08:13:40;16.65;;;2.53;;
58864;SDS011;45702;52.982;6.658;2022-10-19T08:16:19;14.05;;;2.30;;
58864;SDS011;45702;52.982;6.658;2022-10-19T08:18:45;18.08;;;2.17;;
58864;SDS011;45702;52.982;6.658;2022-10-19T08:21:11;18.70;;;1.90;;
58864;SDS011;45702;52.982;6.658;2022-10-19T08:23:37;16.38;;;1.73;;
58864;SDS011;45702;52.982;6.658;2022-10-19T08:26:03;17.38;;;1.77;;
58864;SDS011;45702;52.982;6.658;2022-10-19T08:28:30;11.52;;;1.60;;
58864;SDS011;45702;52.982;6.658;2022-10-19T08:30:56;12.65;;;1.70;;
58864;SDS011;45702;52.982;6.658;2022-10-19T08:33:23;12.23;;;1.70;;
58864;SDS011;45702;52.982;6.658;2022-10-19T08:35:49;18.38;;;2.20;;
58864;SDS011;45702;52.982;6.658;2022-10-19T08:38:17;13.05;;;1.90;;
58864;SDS011;45702;52.982;6.658;2022-10-19T08:40:44;7.53;;;1.52;;
58864;SDS011;45702;52.982;6.658;2022-10-19T08:43:21;11.50;;;1.50;;
58864;SDS011;45702;52.982;6.658;2022-10-19T08:45:54;9.65;;;1.48;;
58864;SDS011;45702;52.982;6.658;2022-10-19T08:48:26;15.35;;;1.73;;
58864;SDS011;45702;52.982;6.658;2022-10-19T08:50:53;10.90;;;1.75;;
58864;SDS011;45702;52.982;6.658;2022-10-19T08:53:22;13.05;;;1.58;;
58864;SDS011;45702;52.982;6.658;2022-10-19T08:58:21;16.27;;;1.90;;
58864;SDS011;45702;52.982;6.658;2022-10-19T09:00:59;8.43;;;1.50;;
58864;SDS011;45702;52.982;6.658;2022-10-19T09:03:34;15.13;;;1.70;;
58864;SDS011;45702;52.982;6.658;2022-10-19T09:06:20;17.83;;;1.85;;
58864;SDS011;45702;52.982;6.658;2022-10-19T09:08:51;11.07;;;2.13;;
58864;SDS011;45702;52.982;6.658;2022-10-19T09:11:22;18.40;;;1.67;;
58864;SDS011;45702;52.982;6.658;2022-10-19T09:13:53;6.85;;;1.25;;
58864;SDS011;45702;52.982;6.658;2022-10-19T09:16:20;13.95;;;1.63;;
58864;SDS011;45702;52.982;6.658;2022-10-19T09:18:46;13.40;;;1.67;;
58864;SDS011;45702;52.982;6.658;2022-10-19T09:21:23;13.07;;;1.70;;
58864;SDS011;45702;52.982;6.658;2022-10-19T09:24:04;18.87;;;1.80;;
58864;SDS011;45702;52.982;6.658;2022-10-19T09:26:42;7.07;;;1.50;;
58864;SDS011;45702;52.982;6.658;2022-10-19T09:32:14;15.18;;;2.00;;
58864;SDS011;45702;52.982;6.658;2022-10-19T09:34:43;8.48;;;1.55;;
58864;SDS011;45702;52.982;6.658;2022-10-19T09:37:11;16.02;;;2.28;;
58864;SDS011;45702;52.982;6.658;2022-10-19T09:39:37;16.70;;;2.08;;
58864;SDS011;45702;52.982;6.658;2022-10-19T09:44:45;15.55;;;1.70;;
58864;SDS011;45702;52.982;6.658;2022-10-19T09:52:42;12.95;;;2.75;;
58864;SDS011;45702;52.982;6.658;2022-10-19T09:57:57;13.00;;;2.50;;
58864;SDS011;45702;52.982;6.658;2022-10-19T10:00:25;14.75;;;3.00;;
58864;SDS011;45702;52.982;6.658;2022-10-19T10:02:56;14.63;;;2.70;;
58864;SDS011;45702;52.982;6.658;2022-10-19T10:05:55;14.35;;;2.63;;
58864;SDS011;45702;52.982;6.658;2022-10-19T10:08:16;9.70;;;2.20;;
58864;SDS011;45702;52.982;6.658;2022-10-19T10:10:47;14.35;;;2.40;;
58864;SDS011;45702;52.982;6.658;2022-10-19T10:13:15;9.18;;;2.65;;
58864;SDS011;45702;52.982;6.658;2022-10-19T10:15:42;13.73;;;2.30;;
58864;SDS011;45702;52.982;6.658;2022-10-19T10:18:13;17.92;;;2.45;;
58864;SDS011;45702;52.982;6.658;2022-10-19T10:20:54;16.48;;;2.20;;
58864;SDS011;45702;52.982;6.658;2022-10-19T10:23:25;14.80;;;2.30;;
58864;SDS011;45702;52.982;6.658;2022-10-19T10:25:55;12.45;;;2.42;;
58864;SDS011;45702;52.982;6.658;2022-10-19T10:28:23;14.48;;;2.50;;
58864;SDS011;45702;52.982;6.658;2022-10-19T10:31:03;11.85;;;2.13;;
58864;SDS011;45702;52.982;6.658;2022-10-19T10:33:31;10.73;;;2.00;;
58864;SDS011;45702;52.982;6.658;2022-10-19T10:36:02;15.10;;;2.40;;
58864;SDS011;45702;52.982;6.658;2022-10-19T10:38:30;11.13;;;2.22;;
58864;SDS011;45702;52.982;6.658;2022-10-19T10:43:57;14.88;;;1.90;;
58864;SDS011;45702;52.982;6.658;2022-10-19T10:46:25;12.65;;;1.52;;
58864;SDS011;45702;52.982;6.658;2022-10-19T10:48:52;14.50;;;1.87;;
58864;SDS011;45702;52.982;6.658;2022-10-19T10:51:21;22.10;;;2.50;;
58864;SDS011;45702;52.982;6.658;2022-10-19T10:53:48;10.07;;;1.60;;
58864;SDS011;45702;52.982;6.658;2022-10-19T10:56:32;11.80;;;1.95;;
58864;SDS011;45702;52.982;6.658;2022-10-19T11:01:27;13.55;;;1.70;;
58864;SDS011;45702;52.982;6.658;2022-10-19T11:03:56;15.73;;;1.60;;
58864;SDS011;45702;52.982;6.658;2022-10-19T11:06:24;8.98;;;1.70;;
58864;SDS011;45702;52.982;6.658;2022-10-19T11:08:53;11.98;;;1.90;;
58864;SDS011;45702;52.982;6.658;2022-10-19T11:11:23;11.70;;;1.75;;
58864;SDS011;45702;52.982;6.658;2022-10-19T11:16:17;11.60;;;2.30;;
58864;SDS011;45702;52.982;6.658;2022-10-19T11:19:28;13.52;;;1.90;;
58864;SDS011;45702;52.982;6.658;2022-10-19T11:21:36;11.05;;;2.03;;
58864;SDS011;45702;52.982;6.658;2022-10-19T11:31:48;10.45;;;2.50;;
58864;SDS011;45702;52.982;6.658;2022-10-19T11:49:39;10.45;;;2.30;;
58864;SDS011;45702;52.982;6.658;2022-10-19T11:52:11;9.70;;;2.30;;
58864;SDS011;45702;52.982;6.658;2022-10-19T11:57:27;9.52;;;2.17;;
58864;SDS011;45702;52.982;6.658;2022-10-19T12:00:05;9.32;;;1.88;;
58864;SDS011;45702;52.982;6.658;2022-10-19T12:05:13;10.85;;;2.17;;
58864;SDS011;45702;52.982;6.658;2022-10-19T12:12:41;10.10;;;1.92;;
58864;SDS011;45702;52.982;6.658;2022-10-19T12:17:48;8.88;;;1.67;;
58864;SDS011;45702;52.982;6.658;2022-10-19T12:23:00;12.95;;;1.88;;
58864;SDS011;45702;52.982;6.658;2022-10-19T12:25:29;11.50;;;1.90;;
58864;SDS011;45702;52.982;6.658;2022-10-19T12:27:55;27.00;;;9.00;;
58864;SDS011;45702;52.982;6.658;2022-10-19T12:30:22;12.15;;;2.88;;
58864;SDS011;45702;52.982;6.658;2022-10-19T12:45:35;18.25;;;5.70;;
58864;SDS011;45702;52.982;6.658;2022-10-19T12:53:26;12.18;;;1.85;;
58864;SDS011;45702;52.982;6.658;2022-10-19T12:58:24;13.07;;;2.50;;
58864;SDS011;45702;52.982;6.658;2022-10-19T13:00:57;8.93;;;2.05;;
58864;SDS011;45702;52.982;6.658;2022-10-19T13:03:25;10.88;;;2.25;;
58864;SDS011;45702;52.982;6.658;2022-10-19T13:05:56;8.23;;;1.58;;
58864;SDS011;45702;52.982;6.658;2022-10-19T13:08:25;8.88;;;2.13;;
58864;SDS011;45702;52.982;6.658;2022-10-19T13:11:08;6.57;;;1.80;;
58864;SDS011;45702;52.982;6.658;2022-10-19T13:13:58;10.18;;;2.08;;
58864;SDS011;45702;52.982;6.658;2022-10-19T13:16:56;11.27;;;2.10;;
58864;SDS011;45702;52.982;6.658;2022-10-19T13:19:26;11.93;;;2.03;;
58864;SDS011;45702;52.982;6.658;2022-10-19T13:34:49;10.00;;;2.88;;
58864;SDS011;45702;52.982;6.658;2022-10-19T13:37:15;16.05;;;3.28;;
58864;SDS011;45702;52.982;6.658;2022-10-19T13:39:43;12.05;;;3.60;;
58864;SDS011;45702;52.982;6.658;2022-10-19T13:42:24;9.80;;;3.70;;
58864;SDS011;45702;52.982;6.658;2022-10-19T13:44:51;14.30;;;4.47;;
58864;SDS011;45702;52.982;6.658;2022-10-19T13:47:26;14.82;;;5.10;;
58864;SDS011;45702;52.982;6.658;2022-10-19T13:52:29;16.90;;;5.72;;
58864;SDS011;45702;52.982;6.658;2022-10-19T14:07:53;13.90;;;6.57;;
58864;SDS011;45702;52.982;6.658;2022-10-19T14:10:31;13.40;;;6.65;;
58864;SDS011;45702;52.982;6.658;2022-10-19T14:12:58;17.60;;;6.95;;
58864;SDS011;45702;52.982;6.658;2022-10-19T14:15:29;15.57;;;7.07;;
58864;SDS011;45702;52.982;6.658;2022-10-19T14:17:56;20.70;;;7.40;;
58864;SDS011;45702;52.982;6.658;2022-10-19T14:22:55;13.65;;;7.47;;
58864;SDS011;45702;52.982;6.658;2022-10-19T14:25:22;19.33;;;7.95;;
58864;SDS011;45702;52.982;6.658;2022-10-19T14:27:51;18.58;;;7.68;;
58864;SDS011;45702;52.982;6.658;2022-10-19T14:30:23;20.98;;;8.15;;
58864;SDS011;45702;52.982;6.658;2022-10-19T14:32:49;18.90;;;8.07;;
58864;SDS011;45702;52.982;6.658;2022-10-19T14:35:20;21.60;;;9.52;;
58864;SDS011;45702;52.982;6.658;2022-10-19T14:37:47;22.48;;;10.02;;
58864;SDS011;45702;52.982;6.658;2022-10-19T14:40:24;20.23;;;9.50;;
58864;SDS011;45702;52.982;6.658;2022-10-19T14:42:50;18.20;;;8.43;;
58864;SDS011;45702;52.982;6.658;2022-10-19T14:45:23;24.40;;;9.27;;
58864;SDS011;45702;52.982;6.658;2022-10-19T14:50:20;17.02;;;9.90;;
58864;SDS011;45702;52.982;6.658;2022-10-19T14:52:48;19.25;;;9.55;;
58864;SDS011;45702;52.982;6.658;2022-10-19T14:55:16;20.03;;;9.87;;
58864;SDS011;45702;52.982;6.658;2022-10-19T14:57:43;21.05;;;11.80;;
58864;SDS011;45702;52.982;6.658;2022-10-19T15:00:19;20.00;;;10.45;;
58864;SDS011;45702;52.982;6.658;2022-10-19T15:02:47;18.10;;;10.18;;
58864;SDS011;45702;52.982;6.658;2022-10-19T15:05:19;22.58;;;11.70;;
58864;SDS011;45702;52.982;6.658;2022-10-19T15:07:47;19.42;;;9.68;;
58864;SDS011;45702;52.982;6.658;2022-10-19T15:10:17;20.70;;;10.20;;
58864;SDS011;45702;52.982;6.658;2022-10-19T15:12:44;23.17;;;11.13;;
58864;SDS011;45702;52.982;6.658;2022-10-19T15:15:53;20.30;;;11.10;;
58864;SDS011;45702;52.982;6.658;2022-10-19T15:20:33;22.45;;;11.55;;
58864;SDS011;45702;52.982;6.658;2022-10-19T15:23:00;19.40;;;11.52;;
58864;SDS011;45702;52.982;6.658;2022-10-19T15:25:28;20.63;;;11.45;;
58864;SDS011;45702;52.982;6.658;2022-10-19T15:27:56;22.55;;;11.20;;
58864;SDS011;45702;52.982;6.658;2022-10-19T15:30:24;18.65;;;10.38;;
58864;SDS011;45702;52.982;6.658;2022-10-19T15:32:53;19.20;;;10.17;;
58864;SDS011;45702;52.982;6.658;2022-10-19T15:35:22;19.63;;;10.15;;
58864;SDS011;45702;52.982;6.658;2022-10-19T15:37:50;18.45;;;9.18;;
58864;SDS011;45702;52.982;6.658;2022-10-19T15:40:25;22.27;;;8.95;;
58864;SDS011;45702;52.982;6.658;2022-10-19T15:42:53;17.20;;;9.68;;
58864;SDS011;45702;52.982;6.658;2022-10-19T15:48:22;18.27;;;8.60;;
58864;SDS011;45702;52.982;6.658;2022-10-19T15:50:50;21.45;;;12.38;;
58864;SDS011;45702;52.982;6.658;2022-10-19T15:53:16;22.33;;;11.45;;
58864;SDS011;45702;52.982;6.658;2022-10-19T15:55:43;17.45;;;9.32;;
58864;SDS011;45702;52.982;6.658;2022-10-19T15:58:09;13.23;;;7.00;;
58864;SDS011;45702;52.982;6.658;2022-10-19T16:00:36;13.98;;;6.75;;
58864;SDS011;45702;52.982;6.658;2022-10-19T16:03:02;12.50;;;6.28;;
58864;SDS011;45702;52.982;6.658;2022-10-19T16:05:28;13.48;;;6.63;;
58864;SDS011;45702;52.982;6.658;2022-10-19T16:07:54;18.35;;;8.35;;
58864;SDS011;45702;52.982;6.658;2022-10-19T16:10:22;19.45;;;8.63;;
58864;SDS011;45702;52.982;6.658;2022-10-19T16:12:48;17.92;;;7.90;;
58864;SDS011;45702;52.982;6.658;2022-10-19T16:15:15;15.98;;;7.90;;
58864;SDS011;45702;52.982;6.658;2022-10-19T16:17:46;17.38;;;8.55;;
58864;SDS011;45702;52.982;6.658;2022-10-19T16:20:13;22.25;;;9.05;;
58864;SDS011;45702;52.982;6.658;2022-10-19T16:22:39;19.67;;;9.48;;
58864;SDS011;45702;52.982;6.658;2022-10-19T16:25:05;17.20;;;9.57;;
58864;SDS011;45702;52.982;6.658;2022-10-19T16:27:31;17.00;;;8.23;;
58864;SDS011;45702;52.982;6.658;2022-10-19T16:29:57;19.13;;;9.52;;
58864;SDS011;45702;52.982;6.658;2022-10-19T16:32:23;20.88;;;9.82;;
58864;SDS011;45702;52.982;6.658;2022-10-19T16:34:49;16.85;;;9.13;;
58864;SDS011;45702;52.982;6.658;2022-10-19T16:37:15;17.90;;;8.10;;
58864;SDS011;45702;52.982;6.658;2022-10-19T16:39:41;14.07;;;7.30;;
58864;SDS011;45702;52.982;6.658;2022-10-19T16:42:07;13.40;;;6.18;;
58864;SDS011;45702;52.982;6.658;2022-10-19T16:44:34;15.65;;;9.63;;
58864;SDS011;45702;52.982;6.658;2022-10-19T16:47:00;22.17;;;12.75;;
58864;SDS011;45702;52.982;6.658;2022-10-19T16:49:26;26.42;;;17.65;;
58864;SDS011;45702;52.982;6.658;2022-10-19T16:51:52;20.80;;;10.00;;
58864;SDS011;45702;52.982;6.658;2022-10-19T16:54:18;16.73;;;7.68;;
58864;SDS011;45702;52.982;6.658;2022-10-19T16:56:45;15.65;;;5.90;;
58864;SDS011;45702;52.982;6.658;2022-10-19T16:59:12;10.73;;;5.25;;
58864;SDS011;45702;52.982;6.658;2022-10-19T17:01:39;18.25;;;5.68;;
58864;SDS011;45702;52.982;6.658;2022-10-19T17:04:06;14.63;;;4.85;;
58864;SDS011;45702;52.982;6.658;2022-10-19T17:06:32;13.48;;;4.85;;
58864;SDS011;45702;52.982;6.658;2022-10-19T17:08:58;21.13;;;4.72;;
58864;SDS011;45702;52.982;6.658;2022-10-19T17:13:51;14.95;;;6.70;;